White Lake, South Dakota
Current Conditions -  °F | °C
As of 6:15 PM on Wednesday 22 Oct 2014 (Local Time) from K9V9 Reporting Station
Clear Clear  
Wind Chill: 58°   Ceiling: Unl
Heat Index: 58°   Visibility: 10mi
Dew Point: 49°   Wind: 3mph
Humidity: 73%   Direction: 170°S
Pressure: 29.97"   Gusts: NA
Location:  43.73°N, 98.71°W
Report Text: K9V9 222315Z AUTO 17003KT 10SM CLR 15/10 A2997 RMK AO2 T01450097
Loading
Personal Weather Stations






























Interactive Weather Map
Tropical Storm Tracking
New forecast layout! Learn more

10-Day Weather Forecast

Advertisements
Track Severe Weather on mobile